Time;durP1;ratioP1;P1;durP2;ratioP2;P2;SDS_P1;SDS_P2;PMS_P1;PMS_P2;Temp;Humidity;BMP_temperature;BMP_pressure;BME280_temperature;BME280_humidity;BME280_pressure;Samples;Min_cycle;Max_cycle;Signal;HPM_P1;HPM_P2
2023/05/21 00:01:31;;;;;;;22.10;17.40;;;13.70;99.90;;;;;;5085671;28;20101;-74
2023/05/21 00:03:58;;;;;;;25.15;16.40;;;13.70;99.90;;;;;;5069583;28;20040;-75
2023/05/21 00:06:26;;;;;;;26.00;17.40;;;13.70;99.90;;;;;;5085217;28;20053;-75
2023/05/21 00:08:53;;;;;;;25.85;16.42;;;13.60;99.90;;;;;;5083834;28;20044;-75
2023/05/21 00:11:21;;;;;;;25.70;16.80;;;13.60;99.90;;;;;;5084972;28;20037;-76
2023/05/21 00:13:50;;;;;;;23.90;17.02;;;13.60;99.90;;;;;;5085990;28;20064;-75
2023/05/21 00:16:17;;;;;;;24.48;17.73;;;13.50;99.90;;;;;;5085694;28;20063;-75
2023/05/21 00:18:44;;;;;;;25.55;17.17;;;13.50;99.90;;;;;;5083662;28;20044;-76
2023/05/21 00:21:12;;;;;;;21.83;16.40;;;13.40;99.90;;;;;;5087496;28;20058;-74
2023/05/21 00:23:41;;;;;;;21.45;17.25;;;13.40;99.90;;;;;;5090001;28;20137;-77
2023/05/21 00:26:08;;;;;;;23.55;17.13;;;13.30;99.90;;;;;;5091727;28;20100;-76
2023/05/21 00:28:36;;;;;;;24.50;18.58;;;13.30;99.90;;;;;;5091418;28;20094;-75
2023/05/21 00:31:05;;;;;;;24.80;16.98;;;13.30;99.90;;;;;;5073557;28;20048;-75
2023/05/21 00:33:32;;;;;;;21.25;15.60;;;13.20;99.90;;;;;;5090957;28;20048;-75
2023/05/21 00:36:00;;;;;;;22.08;16.58;;;13.20;99.90;;;;;;5091587;28;20056;-76
2023/05/21 00:38:28;;;;;;;23.13;17.08;;;13.20;99.90;;;;;;5072725;28;20036;-75
2023/05/21 00:40:56;;;;;;;23.98;16.23;;;13.20;99.90;;;;;;5091774;28;20032;-76
2023/05/21 00:43:25;;;;;;;22.02;16.02;;;13.20;99.90;;;;;;5073144;28;20044;-74
2023/05/21 00:45:55;;;;;;;27.30;16.67;;;13.20;99.90;;;;;;5091476;28;20215;-76
2023/05/21 00:48:24;;;;;;;20.48;16.35;;;13.20;99.90;;;;;;5073251;28;20044;-76
2023/05/21 00:50:52;;;;;;;21.02;15.80;;;13.30;99.90;;;;;;5091711;28;20055;-73
2023/05/21 00:53:20;;;;;;;24.67;16.48;;;13.30;99.90;;;;;;5072920;28;20400;-75
2023/05/21 00:55:47;;;;;;;21.40;14.88;;;13.10;99.90;;;;;;5073051;28;20044;-76
2023/05/21 00:58:16;;;;;;;20.30;15.48;;;13.00;99.90;;;;;;5091403;28;20416;-76
2023/05/21 01:00:44;;;;;;;21.58;15.32;;;13.00;99.90;;;;;;5073061;28;20138;-75
2023/05/21 01:03:15;;;;;;;19.02;15.23;;;12.80;99.90;;;;;;5091511;28;20132;-74
2023/05/21 01:05:45;;;;;;;23.33;15.55;;;12.80;99.90;;;;;;5073418;28;20526;-75
2023/05/21 01:08:13;;;;;;;24.45;17.92;;;12.70;99.90;;;;;;5073418;28;20109;-74
2023/05/21 01:10:41;;;;;;;24.98;18.42;;;12.60;99.90;;;;;;5073623;28;20480;-74
2023/05/21 01:13:08;;;;;;;26.65;18.35;;;12.60;99.90;;;;;;5072532;28;20063;-74
2023/05/21 01:15:37;;;;;;;25.40;17.95;;;12.60;99.90;;;;;;5088974;28;20127;-76
2023/05/21 01:18:06;;;;;;;22.75;17.88;;;12.50;99.90;;;;;;5090955;28;20037;-75
2023/05/21 01:20:33;;;;;;;22.35;17.17;;;12.50;99.90;;;;;;5093325;28;20101;-74
2023/05/21 01:23:03;;;;;;;41.53;25.05;;;12.60;99.90;;;;;;5073127;28;20048;-75
2023/05/21 01:25:30;;;;;;;24.15;18.15;;;12.60;99.90;;;;;;5071505;28;20044;-76
2023/05/21 01:27:58;;;;;;;26.13;17.08;;;12.60;99.90;;;;;;5072643;28;20132;-75
2023/05/21 01:30:26;;;;;;;25.30;16.38;;;12.50;99.90;;;;;;5072171;28;20043;-76
2023/05/21 01:33:00;;;;;;;23.58;17.83;;;12.50;99.90;;;;;;5091171;28;20080;-75
2023/05/21 01:35:32;;;;;;;22.25;17.48;;;12.40;99.90;;;;;;5089632;28;20047;-74
2023/05/21 01:38:09;;;;;;;23.17;16.83;;;12.30;99.90;;;;;;5072863;28;20135;-76
2023/05/21 01:40:41;;;;;;;25.02;17.23;;;12.30;99.90;;;;;;5095199;28;20058;-74
2023/05/21 01:43:10;;;;;;;23.48;17.73;;;12.30;99.90;;;;;;5075144;28;20345;-75
2023/05/21 01:45:42;;;;;;;22.42;17.05;;;12.30;99.90;;;;;;5072425;28;20044;-74
2023/05/21 01:48:11;;;;;;;23.38;15.65;;;12.40;99.90;;;;;;5072482;28;20507;-74
2023/05/21 01:50:40;;;;;;;21.45;16.05;;;12.40;99.90;;;;;;5071827;28;20123;-75
2023/05/21 01:53:09;;;;;;;21.40;16.48;;;12.30;99.90;;;;;;5090448;28;20163;-76
2023/05/21 01:55:40;;;;;;;23.75;15.85;;;12.30;99.90;;;;;;5072578;28;20048;-74
2023/05/21 01:58:08;;;;;;;20.13;15.93;;;12.30;99.90;;;;;;5089254;28;20048;-75
2023/05/21 02:00:36;;;;;;;18.73;15.75;;;12.20;99.90;;;;;;5072078;28;20678;-76
2023/05/21 02:03:04;;;;;;;22.50;16.85;;;12.20;99.90;;;;;;5090449;28;20067;-74
2023/05/21 02:05:31;;;;;;;22.92;17.52;;;12.10;99.90;;;;;;5070927;28;20042;-75
2023/05/21 02:07:59;;;;;;;22.85;17.25;;;12.00;99.90;;;;;;5072360;28;20043;-75
2023/05/21 02:10:28;;;;;;;22.92;16.60;;;12.00;99.90;;;;;;5073661;28;20051;-75
2023/05/21 02:12:56;;;;;;;24.63;18.27;;;11.90;99.90;;;;;;5076841;28;20131;-76
2023/05/21 02:15:23;;;;;;;22.25;15.93;;;12.00;99.90;;;;;;5074462;28;20044;-75
2023/05/21 02:17:51;;;;;;;22.85;17.63;;;12.00;99.90;;;;;;5089503;28;20074;-76
2023/05/21 02:20:19;;;;;;;21.08;16.60;;;12.00;99.90;;;;;;5070775;28;20052;-76
2023/05/21 02:22:48;;;;;;;21.35;16.45;;;11.90;99.90;;;;;;5090279;28;20040;-74
2023/05/21 02:25:17;;;;;;;19.48;16.05;;;11.80;99.90;;;;;;5088842;28;20040;-76
2023/05/21 02:27:46;;;;;;;20.95;15.98;;;12.00;99.90;;;;;;5088861;28;21117;-74
2023/05/21 02:30:15;;;;;;;21.92;16.88;;;11.90;99.90;;;;;;5088653;28;20051;-74
2023/05/21 02:32:43;;;;;;;22.90;16.02;;;11.80;99.90;;;;;;5071648;28;20135;-75
2023/05/21 02:35:12;;;;;;;20.48;15.98;;;11.80;99.90;;;;;;5089607;28;20119;-75
2023/05/21 02:37:40;;;;;;;22.08;16.45;;;11.80;99.90;;;;;;5072206;28;20040;-75
2023/05/21 02:40:09;;;;;;;18.27;15.65;;;11.70;99.90;;;;;;5089098;28;20032;-77
2023/05/21 02:42:38;;;;;;;21.08;15.13;;;11.70;99.90;;;;;;5070556;28;20046;-74
2023/05/21 02:45:09;;;;;;;20.20;16.13;;;11.70;99.90;;;;;;5070034;28;20067;-75
2023/05/21 02:47:38;;;;;;;23.33;16.15;;;11.80;99.90;;;;;;5070298;28;20040;-74
2023/05/21 02:50:08;;;;;;;19.52;15.95;;;11.80;99.90;;;;;;5089236;28;20058;-73
2023/05/21 02:52:42;;;;;;;18.58;15.25;;;11.70;99.90;;;;;;5072649;28;20127;-74
2023/05/21 02:55:10;;;;;;;19.90;15.20;;;11.70;99.90;;;;;;5089272;28;20048;-76
2023/05/21 02:57:37;;;;;;;19.77;15.48;;;11.70;99.90;;;;;;5074453;28;20048;-76
2023/05/21 03:00:08;;;;;;;23.30;15.20;;;11.60;99.90;;;;;;5089687;28;20139;-76
2023/05/21 03:02:37;;;;;;;22.45;16.08;;;11.60;99.90;;;;;;5071498;28;20131;-75
2023/05/21 03:05:05;;;;;;;22.60;15.73;;;11.60;99.90;;;;;;5072207;28;20514;-75
2023/05/21 03:07:34;;;;;;;21.67;15.35;;;11.50;99.90;;;;;;5070953;28;20050;-74
2023/05/21 03:10:02;;;;;;;20.90;14.90;;;11.50;99.90;;;;;;5070614;28;20040;-75
2023/05/21 03:12:29;;;;;;;22.92;15.13;;;11.50;99.90;;;;;;5070528;28;20497;-74
2023/05/21 03:14:58;;;;;;;20.10;15.63;;;11.60;99.90;;;;;;5070063;28;20040;-75
2023/05/21 03:17:27;;;;;;;20.98;15.80;;;11.50;99.90;;;;;;5070639;28;20036;-75
2023/05/21 03:19:55;;;;;;;21.17;16.25;;;11.50;99.90;;;;;;5087681;28;20063;-75
2023/05/21 03:22:23;;;;;;;24.73;17.98;;;11.50;99.90;;;;;;5085241;28;20113;-76
2023/05/21 03:24:50;;;;;;;26.40;16.52;;;11.50;99.90;;;;;;5085176;28;20055;-75
2023/05/21 03:27:19;;;;;;;23.25;16.98;;;11.50;99.90;;;;;;5069261;28;20052;-75
2023/05/21 03:29:48;;;;;;;20.60;15.68;;;11.60;99.90;;;;;;5069407;28;20040;-75
2023/05/21 03:32:17;;;;;;;22.30;15.63;;;11.60;99.90;;;;;;5069742;28;20043;-74
2023/05/21 03:34:48;;;;;;;22.23;15.30;;;11.60;99.90;;;;;;5070321;28;20054;-76
2023/05/21 03:37:18;;;;;;;21.92;14.73;;;11.60;99.90;;;;;;5069264;28;20502;-76
2023/05/21 03:39:46;;;;;;;24.20;15.32;;;11.60;99.90;;;;;;5086023;28;20117;-77
2023/05/21 03:42:13;;;;;;;19.80;14.68;;;11.70;99.90;;;;;;5069413;28;20231;-75
2023/05/21 03:44:46;;;;;;;18.88;14.85;;;11.80;99.90;;;;;;5069793;28;20055;-76
2023/05/21 03:47:36;;;;;;;19.42;15.48;;;11.80;99.90;;;;;;5082926;28;20119;-75
2023/05/21 03:50:10;;;;;;;17.17;14.02;;;12.10;99.90;;;;;;5069262;28;20401;-75
2023/05/21 03:52:37;;;;;;;17.73;13.65;;;12.50;99.90;;;;;;5069310;28;20086;-76
2023/05/21 03:55:06;;;;;;;18.80;13.13;;;13.00;99.90;;;;;;5069287;28;20044;-76
2023/05/21 03:57:34;;;;;;;15.80;12.13;;;13.60;99.90;;;;;;5069889;28;20037;-75
2023/05/21 04:00:04;;;;;;;21.17;12.52;;;14.00;99.90;;;;;;5088807;28;20070;-74
2023/05/21 04:02:32;;;;;;;17.20;11.55;;;14.70;99.90;;;;;;5088554;28;20091;-75
2023/05/21 04:05:00;;;;;;;14.65;10.25;;;15.40;99.90;;;;;;5073403;28;20055;-75
2023/05/21 04:07:28;;;;;;;16.25;10.23;;;16.10;99.90;;;;;;5074126;28;20050;-74
2023/05/21 04:09:56;;;;;;;15.43;9.98;;;16.90;99.90;;;;;;5073926;28;20040;-78
2023/05/21 04:12:23;;;;;;;16.50;10.85;;;17.60;99.90;;;;;;5080594;28;20402;-75
2023/05/21 04:14:51;;;;;;;13.68;9.95;;;17.90;99.90;;;;;;5108732;28;20093;-75
2023/05/21 04:17:19;;;;;;;12.23;9.40;;;18.00;99.90;;;;;;5109961;28;20131;-75
2023/05/21 04:19:47;;;;;;;13.02;9.05;;;18.20;99.90;;;;;;5081705;28;20052;-76
2023/05/21 04:22:14;;;;;;;14.60;8.98;;;18.40;99.90;;;;;;5080826;28;20521;-74
2023/05/21 04:24:45;;;;;;;11.98;9.18;;;19.20;99.90;;;;;;5079345;28;20052;-75
2023/05/21 04:27:25;;;;;;;15.38;9.77;;;19.90;99.90;;;;;;5081683;28;20400;-75
2023/05/21 04:29:54;;;;;;;10.65;8.75;;;20.40;99.90;;;;;;5089862;28;20075;-75
2023/05/21 04:32:24;;;;;;;11.93;9.45;;;20.90;99.90;;;;;;5094240;28;20049;-75
2023/05/21 04:34:51;;;;;;;12.85;9.27;;;21.20;97.90;;;;;;5098285;28;20045;-75
2023/05/21 04:37:19;;;;;;;12.75;8.82;;;21.20;96.70;;;;;;5097650;28;20037;-75
2023/05/21 04:39:47;;;;;;;12.23;8.45;;;21.50;95.50;;;;;;5089216;28;20058;-74
2023/05/21 04:42:15;;;;;;;16.25;10.55;;;22.00;94.40;;;;;;5085149;28;20143;-75
2023/05/21 04:44:43;;;;;;;17.27;10.18;;;22.00;92.00;;;;;;5096708;28;20047;-75
2023/05/21 04:47:13;;;;;;;15.13;10.25;;;22.60;91.70;;;;;;5080399;28;20036;-76
2023/05/21 04:49:41;;;;;;;17.13;9.75;;;23.20;89.20;;;;;;5080447;28;20052;-75
2023/05/21 04:52:09;;;;;;;14.38;10.77;;;23.40;84.70;;;;;;5079206;28;20071;-76
2023/05/21 04:54:40;;;;;;;15.70;10.68;;;23.10;81.40;;;;;;5084611;28;20404;-76
2023/05/21 04:57:09;;;;;;;16.58;10.88;;;22.40;83.90;;;;;;5096743;28;20052;-74
2023/05/21 04:59:37;;;;;;;14.70;10.50;;;21.70;85.00;;;;;;5104115;28;20127;-75
2023/05/21 05:02:05;;;;;;;17.20;10.35;;;20.90;87.50;;;;;;5096742;28;20047;-76
2023/05/21 05:04:32;;;;;;;17.00;9.90;;;20.70;91.70;;;;;;5080696;28;20040;-77
2023/05/21 05:07:00;;;;;;;11.18;9.20;;;21.90;91.90;;;;;;5079172;28;20048;-76
2023/05/21 05:09:30;;;;;;;12.05;9.50;;;23.00;86.70;;;;;;5079171;28;20071;-75
2023/05/21 05:11:57;;;;;;;11.77;9.02;;;23.30;82.20;;;;;;5079631;28;20049;-74
2023/05/21 05:14:27;;;;;;;14.30;9.95;;;22.30;82.50;;;;;;5080985;28;20036;-75
2023/05/21 05:16:58;;;;;;;23.13;11.00;;;21.20;85.40;;;;;;5078004;28;20048;-74
2023/05/21 05:19:26;;;;;;;13.25;10.35;;;20.40;90.40;;;;;;5080501;28;20074;-75
2023/05/21 05:21:54;;;;;;;14.23;10.05;;;19.40;93.50;;;;;;5083322;28;20524;-75
2023/05/21 05:24:22;;;;;;;13.93;10.90;;;19.00;99.90;;;;;;5082254;28;20040;-75
2023/05/21 05:26:49;;;;;;;13.38;10.82;;;18.70;99.90;;;;;;5082691;28;20048;-76
2023/05/21 05:29:17;;;;;;;18.30;13.65;;;18.60;99.90;;;;;;5081624;28;20048;-75
2023/05/21 05:31:46;;;;;;;14.65;11.65;;;18.70;99.90;;;;;;5107285;28;20047;-75
2023/05/21 05:34:15;;;;;;;15.45;10.73;;;18.80;99.90;;;;;;5081643;28;20470;-76
2023/05/21 05:36:43;;;;;;;13.30;11.25;;;18.60;99.90;;;;;;5101927;28;20044;-75
2023/05/21 05:39:10;;;;;;;16.02;11.95;;;18.50;99.90;;;;;;5082244;28;20036;-75
2023/05/21 05:41:39;;;;;;;13.35;11.10;;;18.20;99.90;;;;;;5081584;28;20561;-75
2023/05/21 05:44:06;;;;;;;15.98;13.15;;;18.20;99.90;;;;;;5084376;28;20043;-76
2023/05/21 05:46:37;;;;;;;17.83;12.82;;;18.40;99.90;;;;;;5083353;28;20070;-75
2023/05/21 05:49:05;;;;;;;17.15;11.40;;;18.60;99.90;;;;;;5081596;28;20396;-76
2023/05/21 05:51:33;;;;;;;16.05;11.57;;;19.00;99.90;;;;;;5082973;28;20048;-74
2023/05/21 05:54:00;;;;;;;17.27;13.18;;;19.20;99.90;;;;;;5084512;28;20525;-75
2023/05/21 05:56:28;;;;;;;18.38;14.95;;;19.70;99.90;;;;;;5082888;28;20056;-76
2023/05/21 05:58:55;;;;;;;15.40;11.65;;;20.00;99.90;;;;;;5083816;28;20113;-75
2023/05/21 06:01:25;;;;;;;19.13;12.98;;;20.30;99.90;;;;;;5084629;28;20101;-73
2023/05/21 06:03:52;;;;;;;17.63;12.20;;;20.80;99.90;;;;;;5082084;28;20048;-75
2023/05/21 06:06:21;;;;;;;13.82;11.25;;;21.40;99.90;;;;;;5107342;28;20553;-77
2023/05/21 06:08:49;;;;;;;22.05;13.18;;;21.90;99.90;;;;;;5080315;28;20048;-76
2023/05/21 06:11:17;;;;;;;21.98;12.20;;;22.10;99.90;;;;;;5080630;28;20044;-74
2023/05/21 06:13:45;;;;;;;18.30;13.23;;;22.00;99.50;;;;;;5101082;28;20043;-75
2023/05/21 06:16:15;;;;;;;24.75;15.15;;;21.90;99.20;;;;;;5081134;28;20036;-75
2023/05/21 06:18:43;;;;;;;18.35;14.68;;;21.70;99.80;;;;;;5081529;28;20521;-74
2023/05/21 06:21:11;;;;;;;18.55;13.55;;;21.60;99.90;;;;;;5078705;28;20044;-74
2023/05/21 06:23:40;;;;;;;16.58;12.07;;;21.40;99.90;;;;;;5080780;28;20042;-74
2023/05/21 06:26:08;;;;;;;18.63;12.43;;;21.60;99.90;;;;;;5081807;28;20475;-75
2023/05/21 06:28:35;;;;;;;19.38;13.23;;;21.80;99.90;;;;;;5100589;28;20059;-75
2023/05/21 06:31:04;;;;;;;16.10;11.20;;;22.00;99.90;;;;;;5081553;28;20408;-75
2023/05/21 06:33:33;;;;;;;15.10;11.35;;;22.30;99.70;;;;;;5082322;28;20605;-74
2023/05/21 06:36:01;;;;;;;15.75;10.73;;;22.50;97.50;;;;;;5080006;28;20047;-73
2023/05/21 06:38:28;;;;;;;17.08;11.05;;;22.50;95.50;;;;;;5099419;28;20051;-75
2023/05/21 06:40:58;;;;;;;13.23;9.90;;;22.30;95.30;;;;;;5087296;28;20074;-75
2023/05/21 06:43:45;;;;;;;16.80;10.18;;;22.40;95.50;;;;;;5076528;28;20044;-73
2023/05/21 06:46:31;;;;;;;12.55;9.43;;;22.40;95.50;;;;;;5090288;28;20051;-75
2023/05/21 06:48:59;;;;;;;10.32;8.43;;;22.70;94.60;;;;;;5086356;28;20040;-74
2023/05/21 06:51:27;;;;;;;11.90;7.53;;;23.00;93.10;;;;;;5070218;28;20044;-74
2023/05/21 06:53:56;;;;;;;11.30;7.60;;;23.30;91.60;;;;;;5070182;28;20044;-76
2023/05/21 06:56:25;;;;;;;14.60;8.55;;;23.50;89.80;;;;;;5070234;28;20586;-74
2023/05/21 06:58:54;;;;;;;14.43;8.05;;;23.70;87.50;;;;;;5070081;28;20645;-74
2023/05/21 07:01:23;;;;;;;10.52;7.22;;;23.90;85.30;;;;;;5087353;28;20134;-76
2023/05/21 07:03:50;;;;;;;11.50;8.43;;;24.00;83.50;;;;;;5070408;28;20044;-75
2023/05/21 07:06:18;;;;;;;10.52;7.10;;;23.90;83.80;;;;;;5070455;28;20048;-74
2023/05/21 07:08:48;;;;;;;8.90;7.07;;;23.50;82.30;;;;;;5070701;28;20071;-74
2023/05/21 07:11:16;;;;;;;10.07;6.72;;;23.20;83.20;;;;;;5086154;28;20040;-74
2023/05/21 07:13:45;;;;;;;9.95;7.43;;;23.10;84.20;;;;;;5087924;28;20032;-76
2023/05/21 07:16:13;;;;;;;11.82;8.13;;;23.30;84.80;;;;;;5070101;28;20036;-75
2023/05/21 07:18:41;;;;;;;13.77;8.13;;;23.30;84.60;;;;;;5070441;28;20094;-74
2023/05/21 07:21:09;;;;;;;12.02;8.27;;;23.30;86.00;;;;;;5084341;28;20470;-76
2023/05/21 07:23:38;;;;;;;11.13;7.40;;;23.30;89.50;;;;;;5087218;28;20085;-75
2023/05/21 07:26:05;;;;;;;12.18;7.80;;;23.20;88.30;;;;;;5087702;28;20135;-76
2023/05/21 07:28:33;;;;;;;11.50;8.02;;;23.40;85.90;;;;;;5103820;28;20503;-75
2023/05/21 07:31:03;;;;;;;11.65;7.97;;;23.70;85.10;;;;;;5087302;28;20051;-75
2023/05/21 07:33:37;;;;;;;10.98;7.32;;;23.50;83.60;;;;;;5087490;28;20071;-74
2023/05/21 07:36:05;;;;;;;8.15;6.45;;;23.50;84.50;;;;;;5087121;28;20516;-75
2023/05/21 07:38:33;;;;;;;10.48;7.72;;;23.90;83.60;;;;;;5086799;28;20089;-74
2023/05/21 07:41:01;;;;;;;13.70;7.40;;;24.20;81.40;;;;;;5087675;28;20056;-76
2023/05/21 07:43:28;;;;;;;13.65;7.60;;;24.40;79.70;;;;;;5086982;28;20044;-75
2023/05/21 07:45:56;;;;;;;10.73;6.43;;;24.40;78.40;;;;;;5085997;28;20559;-75
2023/05/21 07:48:26;;;;;;;10.88;7.95;;;24.50;78.40;;;;;;5103100;28;20037;-75
2023/05/21 07:50:59;;;;;;;9.93;7.32;;;24.50;78.80;;;;;;5086281;28;20115;-76
2023/05/21 07:53:31;;;;;;;10.90;6.60;;;24.70;78.40;;;;;;5085850;28;20155;-74
2023/05/21 07:56:00;;;;;;;9.98;6.32;;;24.80;74.70;;;;;;5086666;28;20047;-76
2023/05/21 07:58:29;;;;;;;10.63;7.35;;;25.30;72.00;;;;;;5066551;28;20049;-75
2023/05/21 08:00:59;;;;;;;11.68;7.05;;;25.40;70.40;;;;;;5066721;28;20049;-74
2023/05/21 08:03:30;;;;;;;9.30;6.05;;;25.50;68.50;;;;;;5069716;28;20064;-75
2023/05/21 08:05:58;;;;;;;8.23;5.80;;;25.50;66.40;;;;;;5086374;28;20139;-76
2023/05/21 08:08:26;;;;;;;12.88;6.10;;;25.20;64.20;;;;;;5086000;28;20052;-75
2023/05/21 08:10:56;;;;;;;13.27;7.57;;;24.70;65.10;;;;;;5071193;28;20040;-75
2023/05/21 08:13:26;;;;;;;8.70;6.18;;;24.40;66.70;;;;;;5072770;28;20040;-75
2023/05/21 08:15:54;;;;;;;9.35;5.60;;;24.40;67.30;;;;;;5080165;28;20427;-74
2023/05/21 08:18:24;;;;;;;11.98;6.40;;;24.20;65.90;;;;;;5070779;28;20036;-75
2023/05/21 08:20:55;;;;;;;10.50;6.15;;;24.00;66.90;;;;;;5067540;28;20048;-75
2023/05/21 08:23:25;;;;;;;12.18;6.30;;;24.10;66.70;;;;;;5066670;28;20048;-75
2023/05/21 08:25:55;;;;;;;9.90;5.90;;;24.10;67.40;;;;;;5065205;28;20056;-74
2023/05/21 08:28:23;;;;;;;11.93;5.60;;;24.20;68.90;;;;;;5064875;28;20135;-75
2023/05/21 08:30:52;;;;;;;11.48;5.88;;;24.50;68.20;;;;;;5084910;28;20049;-74
2023/05/21 08:33:22;;;;;;;10.55;5.97;;;24.50;66.40;;;;;;5066321;28;20499;-75
2023/05/21 08:35:49;;;;;;;12.10;5.80;;;24.50;66.40;;;;;;5088226;28;20040;-75
2023/05/21 08:38:30;;;;;;;9.38;6.10;;;24.40;65.90;;;;;;5090174;28;20047;-76
2023/05/21 08:41:12;;;;;;;11.93;6.97;;;24.30;66.40;;;;;;5065265;28;20056;-75
2023/05/21 08:43:40;;;;;;;9.88;5.63;;;24.40;65.60;;;;;;5065281;28;20529;-76
2023/05/21 08:46:09;;;;;;;9.38;5.60;;;24.40;64.90;;;;;;5069227;28;20442;-75
2023/05/21 08:48:40;;;;;;;7.13;5.45;;;24.00;63.40;;;;;;5069904;28;20131;-75
2023/05/21 08:51:07;;;;;;;8.77;5.93;;;23.70;64.60;;;;;;5088300;28;20086;-75
2023/05/21 08:53:45;;;;;;;;;;;23.70;65.70;;;;;;5087320;28;20106;-75
2023/05/21 08:56:16;;;;;;;9.05;5.68;;;23.80;66.30;;;;;;5068386;28;20395;-76
2023/05/21 08:58:52;;;;;;;8.30;5.22;;;23.70;64.70;;;;;;5069334;28;20493;-75
2023/05/21 09:01:25;;;;;;;9.80;5.40;;;23.60;63.90;;;;;;5071409;28;20051;-75
2023/05/21 09:03:59;;;;;;;10.25;5.45;;;23.70;63.90;;;;;;5090594;28;20040;-73
2023/05/21 09:06:27;;;;;;;9.02;5.43;;;23.70;63.40;;;;;;5071453;28;20557;-75
2023/05/21 09:09:04;;;;;;;10.80;5.60;;;23.80;64.00;;;;;;5067372;28;20048;-74
2023/05/21 09:11:42;;;;;;;7.28;5.05;;;24.00;62.60;;;;;;5090456;28;20032;-75
2023/05/21 09:14:12;;;;;;;8.10;5.47;;;24.10;61.20;;;;;;5090773;28;20040;-74
2023/05/21 09:16:56;;;;;;;10.05;4.82;;;24.30;61.60;;;;;;5071183;28;20052;-75
2023/05/21 09:19:24;;;;;;;10.32;5.05;;;24.40;56.10;;;;;;5066429;28;20068;-74
2023/05/21 09:21:52;;;;;;;9.70;5.60;;;24.30;57.30;;;;;;5074813;28;20405;-75
2023/05/21 09:24:23;;;;;;;8.77;4.82;;;24.40;55.20;;;;;;5057083;28;20123;-75
2023/05/21 09:26:51;;;;;;;11.85;5.47;;;24.40;54.80;;;;;;5058312;28;20443;-75
2023/05/21 09:29:20;;;;;;;8.90;5.45;;;24.40;55.20;;;;;;5059098;28;20040;-76
2023/05/21 09:31:47;;;;;;;12.18;5.00;;;24.50;55.40;;;;;;5060508;28;20127;-75
2023/05/21 09:34:15;;;;;;;8.52;5.22;;;24.60;55.60;;;;;;5057854;28;20397;-77
2023/05/21 09:36:44;;;;;;;11.60;5.40;;;24.70;54.90;;;;;;5059888;28;20445;-74
2023/05/21 09:39:15;;;;;;;13.38;5.38;;;24.70;52.80;;;;;;5075379;28;20090;-74
2023/05/21 09:41:45;;;;;;;8.18;4.78;;;24.60;53.20;;;;;;5060335;28;20119;-75
2023/05/21 09:44:12;;;;;;;9.25;4.68;;;24.60;53.60;;;;;;5060147;28;20450;-75
2023/05/21 09:46:41;;;;;;;12.45;5.45;;;24.60;54.50;;;;;;5060032;28;20484;-76
2023/05/21 09:49:23;;;;;;;15.18;5.50;;;24.50;54.10;;;;;;5057260;28;20096;-76
2023/05/21 09:51:54;;;;;;;12.18;5.43;;;24.30;55.10;;;;;;5057507;28;20090;-75
2023/05/21 09:54:22;;;;;;;11.95;5.40;;;24.40;55.80;;;;;;5072806;28;20047;-76
2023/05/21 09:56:52;;;;;;;9.27;5.47;;;24.60;56.00;;;;;;5057800;28;20124;-76
2023/05/21 09:59:20;;;;;;;6.88;5.05;;;24.60;55.50;;;;;;5079758;28;20052;-75
2023/05/21 10:01:50;;;;;;;9.68;5.18;;;24.70;55.30;;;;;;5081091;28;20056;-76
2023/05/21 10:04:18;;;;;;;6.97;5.20;;;24.70;54.20;;;;;;5082201;28;20499;-75
2023/05/21 10:06:47;;;;;;;10.32;5.45;;;24.80;52.90;;;;;;5059542;28;20033;-75
2023/05/21 10:09:18;;;;;;;10.18;5.45;;;24.90;53.50;;;;;;5070835;28;20058;-74
2023/05/21 10:11:48;;;;;;;8.52;5.78;;;25.10;53.90;;;;;;5059621;28;20495;-75
2023/05/21 10:14:19;;;;;;;13.10;5.88;;;25.20;55.10;;;;;;5074653;28;20044;-75
2023/05/21 10:16:48;;;;;;;9.75;6.35;;;25.20;55.40;;;;;;5057326;28;20111;-75
2023/05/21 10:19:16;;;;;;;9.85;5.38;;;25.10;56.20;;;;;;5072636;28;20085;-74
2023/05/21 10:21:44;;;;;;;11.15;6.18;;;25.30;55.70;;;;;;5066922;28;20059;-75
2023/05/21 10:24:13;;;;;;;13.02;5.28;;;25.30;56.20;;;;;;5084498;28;20047;-75
2023/05/21 10:26:42;;;;;;;8.07;5.82;;;25.30;54.50;;;;;;5083505;28;20061;-74
2023/05/21 10:29:11;;;;;;;11.48;5.55;;;25.10;55.20;;;;;;5083657;28;20356;-75
2023/05/21 10:31:45;;;;;;;9.07;5.53;;;25.00;55.80;;;;;;5084697;28;20040;-74
2023/05/21 10:34:14;;;;;;;7.72;5.75;;;24.80;56.30;;;;;;5082173;28;20064;-73
2023/05/21 10:36:43;;;;;;;12.98;6.00;;;24.50;56.10;;;;;;5082949;28;20048;-76
2023/05/21 10:39:14;;;;;;;9.63;5.47;;;24.30;57.30;;;;;;5082983;28;20488;-76
2023/05/21 10:41:49;;;;;;;8.68;5.22;;;24.40;57.50;;;;;;5085101;28;20051;-74
2023/05/21 10:44:27;;;;;;;13.85;6.20;;;24.30;56.50;;;;;;5083729;28;20123;-75
2023/05/21 10:47:23;;;;;;;10.95;5.50;;;24.40;56.70;;;;;;5083678;28;20480;-75
2023/05/21 10:50:22;;;;;;;8.85;5.28;;;24.40;56.10;;;;;;5060142;28;20492;-74
2023/05/21 10:53:02;;;;;;;7.78;4.60;;;24.30;55.80;;;;;;5026159;28;20066;-75
2023/05/21 10:55:42;;;;;;;12.57;5.18;;;24.50;56.40;;;;;;5068638;28;20078;-74
2023/05/21 10:58:27;;;;;;;6.43;5.25;;;24.70;56.50;;;;;;5066496;28;20059;-74
2023/05/21 11:00:55;;;;;;;9.95;6.13;;;24.90;55.00;;;;;;5065446;28;20439;-75
2023/05/21 11:03:25;;;;;;;8.23;5.40;;;24.90;54.20;;;;;;5060320;28;20048;-74
2023/05/21 11:05:54;;;;;;;6.97;5.20;;;25.00;55.00;;;;;;5085531;28;20052;-73
2023/05/21 11:08:23;;;;;;;9.63;5.80;;;25.30;54.80;;;;;;5085872;28;20039;-78
2023/05/21 11:10:56;;;;;;;8.43;5.70;;;25.30;56.10;;;;;;5086890;28;20039;-74
2023/05/21 11:13:25;;;;;;;8.52;5.72;;;25.40;55.50;;;;;;5087359;28;20048;-75
2023/05/21 11:16:07;;;;;;;12.20;5.70;;;25.30;56.60;;;;;;5087423;28;20040;-76
2023/05/21 11:19:03;;;;;;;7.75;6.07;;;24.90;58.00;;;;;;5069651;28;20044;-74
2023/05/21 11:21:34;;;;;;;8.63;5.00;;;24.80;58.30;;;;;;5097251;28;20557;-75
2023/05/21 11:24:03;;;;;;;9.27;5.10;;;24.80;58.20;;;;;;5105301;28;20051;-75
2023/05/21 11:26:46;;;;;;;9.77;5.53;;;24.70;56.40;;;;;;5097518;28;20462;-75
2023/05/21 11:29:13;;;;;;;8.82;5.20;;;24.70;57.20;;;;;;5097357;28;20537;-75
2023/05/21 11:31:46;;;;;;;11.93;5.70;;;24.70;55.00;;;;;;5112065;28;20161;-74
2023/05/21 11:34:15;;;;;;;18.13;6.07;;;24.90;55.00;;;;;;5091428;28;20115;-75
2023/05/21 11:36:45;;;;;;;8.90;5.13;;;25.00;54.80;;;;;;5097266;28;20051;-75
2023/05/21 11:39:16;;;;;;;11.75;5.10;;;25.10;52.10;;;;;;5098670;28;20043;-75
2023/05/21 11:41:54;;;;;;;9.32;5.20;;;25.30;50.50;;;;;;5096231;28;20076;-75
2023/05/21 11:44:41;;;;;;;10.20;4.75;;;25.20;49.00;;;;;;5098569;28;20051;-76
2023/05/21 11:47:09;;;;;;;9.52;5.20;;;25.00;49.80;;;;;;5097094;28;20379;-75
2023/05/21 11:49:39;;;;;;;8.73;5.28;;;24.80;50.00;;;;;;5095631;28;20467;-74
2023/05/21 11:52:08;;;;;;;8.60;5.60;;;24.70;50.10;;;;;;5080156;28;20155;-75
2023/05/21 11:54:40;;;;;;;9.25;5.45;;;24.30;56.40;;;;;;5077688;28;20046;-74
2023/05/21 11:57:08;;;;;;;8.63;5.40;;;23.40;57.80;;;;;;5078796;28;20051;-76
2023/05/21 11:59:36;;;;;;;8.68;4.07;;;22.70;61.00;;;;;;5097349;28;20484;-75
2023/05/21 12:02:04;;;;;;;9.70;4.50;;;22.40;63.60;;;;;;5081370;28;20051;-75
2023/05/21 12:04:35;;;;;;;9.40;4.35;;;22.10;65.00;;;;;;5097916;28;20048;-74
2023/05/21 12:07:06;;;;;;;7.07;4.30;;;22.10;65.90;;;;;;5099552;28;20723;-75
2023/05/21 12:09:39;;;;;;;8.68;4.10;;;22.20;66.60;;;;;;5099152;28;20089;-75
2023/05/21 12:12:08;;;;;;;7.85;4.75;;;22.40;67.20;;;;;;5097493;28;20044;-74
2023/05/21 12:14:36;;;;;;;7.75;5.00;;;22.40;68.50;;;;;;5099176;28;20047;-75
2023/05/21 12:17:04;;;;;;;9.50;4.93;;;22.50;68.30;;;;;;5098327;28;20154;-75
2023/05/21 12:19:33;;;;;;;9.52;7.07;;;22.90;67.70;;;;;;5099110;28;20510;-75
2023/05/21 12:22:06;;;;;;;9.73;5.53;;;23.40;66.30;;;;;;5101393;28;20267;-75
2023/05/21 12:24:35;;;;;;;8.10;5.78;;;24.10;65.00;;;;;;5102050;28;20040;-74
2023/05/21 12:27:08;;;;;;;13.85;8.50;;;24.60;64.60;;;;;;5103838;28;20040;-76
2023/05/21 12:29:37;;;;;;;11.27;6.85;;;25.30;63.70;;;;;;5103091;28;20487;-74
2023/05/21 12:32:07;;;;;;;109.75;19.67;;;25.70;61.70;;;;;;5102028;28;20040;-75
2023/05/21 12:34:39;;;;;;;8.60;5.82;;;26.00;59.70;;;;;;5069261;28;20052;-75
2023/05/21 12:37:09;;;;;;;11.60;6.28;;;26.10;59.20;;;;;;5087627;28;20054;-75
2023/05/21 12:39:41;;;;;;;8.45;5.50;;;26.10;57.80;;;;;;5091016;28;20041;-75
2023/05/21 12:42:09;;;;;;;9.90;5.53;;;25.80;57.90;;;;;;5090615;28;20032;-75
2023/05/21 12:44:38;;;;;;;8.90;5.60;;;25.70;58.30;;;;;;5071288;28;20069;-74
2023/05/21 12:47:05;;;;;;;10.23;6.45;;;25.60;59.00;;;;;;5092014;28;20069;-74
2023/05/21 12:49:37;;;;;;;11.48;5.97;;;25.60;58.60;;;;;;5091198;28;20063;-75